sensor_id;sensor_type;location;lat;lon;timestamp;P1;durP1;ratioP1;P2;durP2;ratioP2
21110;SDS011;10713;51.912;4.494;2024-01-27T00:00:07;7.22;;;1.42;;
21110;SDS011;10713;51.912;4.494;2024-01-27T00:02:33;19.75;;;2.17;;
21110;SDS011;10713;51.912;4.494;2024-01-27T00:04:59;7.82;;;1.55;;
21110;SDS011;10713;51.912;4.494;2024-01-27T00:07:24;4.75;;;1.80;;
21110;SDS011;10713;51.912;4.494;2024-01-27T00:09:51;5.60;;;2.17;;
21110;SDS011;10713;51.912;4.494;2024-01-27T00:12:17;8.52;;;2.15;;
21110;SDS011;10713;51.912;4.494;2024-01-27T00:14:42;5.82;;;2.03;;
21110;SDS011;10713;51.912;4.494;2024-01-27T00:17:08;10.05;;;1.75;;
21110;SDS011;10713;51.912;4.494;2024-01-27T00:19:34;9.23;;;1.92;;
21110;SDS011;10713;51.912;4.494;2024-01-27T00:21:59;7.63;;;1.60;;
21110;SDS011;10713;51.912;4.494;2024-01-27T00:24:25;7.18;;;1.90;;
21110;SDS011;10713;51.912;4.494;2024-01-27T00:26:50;9.75;;;2.33;;
21110;SDS011;10713;51.912;4.494;2024-01-27T00:29:16;2.35;;;1.25;;
21110;SDS011;10713;51.912;4.494;2024-01-27T00:31:42;5.70;;;1.83;;
21110;SDS011;10713;51.912;4.494;2024-01-27T00:34:07;10.50;;;2.00;;
21110;SDS011;10713;51.912;4.494;2024-01-27T00:36:32;4.07;;;1.65;;
21110;SDS011;10713;51.912;4.494;2024-01-27T00:38:58;8.52;;;2.17;;
21110;SDS011;10713;51.912;4.494;2024-01-27T00:41:23;8.63;;;2.35;;
21110;SDS011;10713;51.912;4.494;2024-01-27T00:43:48;3.92;;;1.85;;
21110;SDS011;10713;51.912;4.494;2024-01-27T00:46:14;6.25;;;1.23;;
21110;SDS011;10713;51.912;4.494;2024-01-27T00:48:39;3.72;;;1.65;;
21110;SDS011;10713;51.912;4.494;2024-01-27T00:51:05;6.45;;;1.15;;
21110;SDS011;10713;51.912;4.494;2024-01-27T00:53:30;5.68;;;1.35;;
21110;SDS011;10713;51.912;4.494;2024-01-27T00:55:55;8.27;;;1.73;;
21110;SDS011;10713;51.912;4.494;2024-01-27T00:58:21;11.45;;;1.90;;
21110;SDS011;10713;51.912;4.494;2024-01-27T01:00:46;4.13;;;1.27;;
21110;SDS011;10713;51.912;4.494;2024-01-27T01:03:11;7.45;;;1.38;;
21110;SDS011;10713;51.912;4.494;2024-01-27T01:05:37;13.95;;;1.70;;
21110;SDS011;10713;51.912;4.494;2024-01-27T01:08:02;4.72;;;1.20;;
21110;SDS011;10713;51.912;4.494;2024-01-27T01:10:28;4.25;;;1.20;;
21110;SDS011;10713;51.912;4.494;2024-01-27T01:12:54;4.30;;;0.70;;
21110;SDS011;10713;51.912;4.494;2024-01-27T01:15:19;5.50;;;1.88;;
21110;SDS011;10713;51.912;4.494;2024-01-27T01:17:45;12.82;;;1.40;;
21110;SDS011;10713;51.912;4.494;2024-01-27T01:20:10;7.50;;;1.45;;
21110;SDS011;10713;51.912;4.494;2024-01-27T01:22:36;3.13;;;1.30;;
21110;SDS011;10713;51.912;4.494;2024-01-27T01:25:01;2.70;;;1.25;;
21110;SDS011;10713;51.912;4.494;2024-01-27T01:27:27;7.90;;;1.65;;
21110;SDS011;10713;51.912;4.494;2024-01-27T01:29:52;3.25;;;0.82;;
21110;SDS011;10713;51.912;4.494;2024-01-27T01:32:17;7.63;;;1.15;;
21110;SDS011;10713;51.912;4.494;2024-01-27T01:34:43;9.52;;;1.52;;
21110;SDS011;10713;51.912;4.494;2024-01-27T01:37:11;4.03;;;1.55;;
21110;SDS011;10713;51.912;4.494;2024-01-27T01:39:38;7.10;;;1.88;;
21110;SDS011;10713;51.912;4.494;2024-01-27T01:42:03;3.10;;;1.75;;
21110;SDS011;10713;51.912;4.494;2024-01-27T01:44:30;3.50;;;1.70;;
21110;SDS011;10713;51.912;4.494;2024-01-27T01:46:56;8.50;;;2.15;;
21110;SDS011;10713;51.912;4.494;2024-01-27T01:49:23;2.33;;;1.73;;
21110;SDS011;10713;51.912;4.494;2024-01-27T01:51:48;5.72;;;1.63;;
21110;SDS011;10713;51.912;4.494;2024-01-27T01:54:14;7.60;;;1.52;;
21110;SDS011;10713;51.912;4.494;2024-01-27T01:56:40;10.50;;;1.83;;
21110;SDS011;10713;51.912;4.494;2024-01-27T01:59:07;11.70;;;1.83;;
21110;SDS011;10713;51.912;4.494;2024-01-27T02:01:33;4.10;;;1.70;;
21110;SDS011;10713;51.912;4.494;2024-01-27T02:03:58;4.32;;;2.22;;
21110;SDS011;10713;51.912;4.494;2024-01-27T02:06:24;11.00;;;2.50;;
21110;SDS011;10713;51.912;4.494;2024-01-27T02:08:50;25.00;;;2.97;;
21110;SDS011;10713;51.912;4.494;2024-01-27T02:11:16;5.70;;;2.08;;
21110;SDS011;10713;51.912;4.494;2024-01-27T02:13:41;5.00;;;2.00;;
21110;SDS011;10713;51.912;4.494;2024-01-27T02:16:07;6.50;;;1.42;;
21110;SDS011;10713;51.912;4.494;2024-01-27T02:18:33;9.23;;;2.10;;
21110;SDS011;10713;51.912;4.494;2024-01-27T02:20:58;7.05;;;2.20;;
21110;SDS011;10713;51.912;4.494;2024-01-27T02:23:23;1.38;;;0.90;;
21110;SDS011;10713;51.912;4.494;2024-01-27T02:25:49;9.25;;;2.35;;
21110;SDS011;10713;51.912;4.494;2024-01-27T02:28:15;12.40;;;2.25;;
21110;SDS011;10713;51.912;4.494;2024-01-27T02:30:41;8.07;;;2.47;;
21110;SDS011;10713;51.912;4.494;2024-01-27T02:33:06;7.60;;;2.72;;
21110;SDS011;10713;51.912;4.494;2024-01-27T02:35:32;4.18;;;1.92;;
21110;SDS011;10713;51.912;4.494;2024-01-27T02:37:57;6.72;;;2.45;;
21110;SDS011;10713;51.912;4.494;2024-01-27T02:40:22;5.82;;;2.30;;
21110;SDS011;10713;51.912;4.494;2024-01-27T02:42:48;5.65;;;2.30;;
21110;SDS011;10713;51.912;4.494;2024-01-27T02:45:13;6.68;;;2.38;;
21110;SDS011;10713;51.912;4.494;2024-01-27T02:47:39;7.60;;;2.45;;
21110;SDS011;10713;51.912;4.494;2024-01-27T02:50:05;6.03;;;2.10;;
21110;SDS011;10713;51.912;4.494;2024-01-27T02:52:33;8.27;;;2.78;;
21110;SDS011;10713;51.912;4.494;2024-01-27T02:54:59;12.40;;;2.72;;
21110;SDS011;10713;51.912;4.494;2024-01-27T02:57:24;9.88;;;3.90;;
21110;SDS011;10713;51.912;4.494;2024-01-27T02:59:50;4.47;;;2.65;;
21110;SDS011;10713;51.912;4.494;2024-01-27T03:02:15;9.85;;;2.13;;
21110;SDS011;10713;51.912;4.494;2024-01-27T03:04:41;8.07;;;3.55;;
21110;SDS011;10713;51.912;4.494;2024-01-27T03:07:06;11.30;;;3.70;;
21110;SDS011;10713;51.912;4.494;2024-01-27T03:09:32;8.70;;;3.20;;
21110;SDS011;10713;51.912;4.494;2024-01-27T03:11:57;8.10;;;2.90;;
21110;SDS011;10713;51.912;4.494;2024-01-27T03:14:23;4.13;;;2.20;;
21110;SDS011;10713;51.912;4.494;2024-01-27T03:16:48;10.50;;;3.63;;
21110;SDS011;10713;51.912;4.494;2024-01-27T03:19:14;7.20;;;3.70;;
21110;SDS011;10713;51.912;4.494;2024-01-27T03:21:40;9.77;;;3.53;;
21110;SDS011;10713;51.912;4.494;2024-01-27T03:24:05;5.25;;;2.80;;
21110;SDS011;10713;51.912;4.494;2024-01-27T03:26:30;6.60;;;2.80;;
21110;SDS011;10713;51.912;4.494;2024-01-27T03:28:56;7.53;;;2.97;;
21110;SDS011;10713;51.912;4.494;2024-01-27T03:31:21;13.85;;;2.80;;
21110;SDS011;10713;51.912;4.494;2024-01-27T03:33:46;8.27;;;2.45;;
21110;SDS011;10713;51.912;4.494;2024-01-27T03:36:12;5.97;;;2.13;;
21110;SDS011;10713;51.912;4.494;2024-01-27T03:38:39;4.60;;;3.30;;
21110;SDS011;10713;51.912;4.494;2024-01-27T03:41:05;5.75;;;2.97;;
21110;SDS011;10713;51.912;4.494;2024-01-27T03:43:31;5.05;;;2.78;;
21110;SDS011;10713;51.912;4.494;2024-01-27T03:45:58;8.55;;;2.78;;
21110;SDS011;10713;51.912;4.494;2024-01-27T03:48:23;15.95;;;3.95;;
21110;SDS011;10713;51.912;4.494;2024-01-27T03:50:49;11.10;;;2.95;;
21110;SDS011;10713;51.912;4.494;2024-01-27T03:53:14;7.18;;;3.13;;
21110;SDS011;10713;51.912;4.494;2024-01-27T03:55:39;10.18;;;3.53;;
21110;SDS011;10713;51.912;4.494;2024-01-27T03:58:05;5.50;;;3.13;;
21110;SDS011;10713;51.912;4.494;2024-01-27T04:00:31;4.63;;;2.45;;
21110;SDS011;10713;51.912;4.494;2024-01-27T04:03:00;12.20;;;3.22;;
21110;SDS011;10713;51.912;4.494;2024-01-27T04:05:26;4.88;;;2.83;;
21110;SDS011;10713;51.912;4.494;2024-01-27T04:07:53;8.30;;;3.08;;
21110;SDS011;10713;51.912;4.494;2024-01-27T04:10:19;8.93;;;3.13;;
21110;SDS011;10713;51.912;4.494;2024-01-27T04:12:46;11.27;;;3.42;;
21110;SDS011;10713;51.912;4.494;2024-01-27T04:15:11;11.60;;;3.20;;
21110;SDS011;10713;51.912;4.494;2024-01-27T04:17:37;8.38;;;3.65;;
21110;SDS011;10713;51.912;4.494;2024-01-27T04:20:03;7.43;;;3.10;;
21110;SDS011;10713;51.912;4.494;2024-01-27T04:22:29;7.90;;;2.92;;
21110;SDS011;10713;51.912;4.494;2024-01-27T04:24:55;15.18;;;3.75;;
21110;SDS011;10713;51.912;4.494;2024-01-27T04:27:20;9.32;;;4.15;;
21110;SDS011;10713;51.912;4.494;2024-01-27T04:29:46;8.60;;;3.20;;
21110;SDS011;10713;51.912;4.494;2024-01-27T04:32:11;12.60;;;3.35;;
21110;SDS011;10713;51.912;4.494;2024-01-27T04:34:37;9.48;;;3.15;;
21110;SDS011;10713;51.912;4.494;2024-01-27T04:37:03;14.88;;;3.58;;
21110;SDS011;10713;51.912;4.494;2024-01-27T04:39:29;4.88;;;3.58;;
21110;SDS011;10713;51.912;4.494;2024-01-27T04:41:54;7.05;;;3.38;;
21110;SDS011;10713;51.912;4.494;2024-01-27T04:44:20;7.10;;;2.75;;
21110;SDS011;10713;51.912;4.494;2024-01-27T04:46:45;6.90;;;3.60;;
21110;SDS011;10713;51.912;4.494;2024-01-27T04:49:11;6.72;;;3.65;;
21110;SDS011;10713;51.912;4.494;2024-01-27T04:51:36;8.43;;;3.50;;
21110;SDS011;10713;51.912;4.494;2024-01-27T04:54:02;6.75;;;3.08;;
21110;SDS011;10713;51.912;4.494;2024-01-27T04:56:27;5.25;;;3.05;;
21110;SDS011;10713;51.912;4.494;2024-01-27T04:58:52;17.33;;;3.72;;
21110;SDS011;10713;51.912;4.494;2024-01-27T05:01:18;7.53;;;3.00;;
21110;SDS011;10713;51.912;4.494;2024-01-27T05:03:43;6.82;;;3.65;;
21110;SDS011;10713;51.912;4.494;2024-01-27T05:06:09;13.25;;;3.92;;
21110;SDS011;10713;51.912;4.494;2024-01-27T05:08:35;7.05;;;3.28;;
21110;SDS011;10713;51.912;4.494;2024-01-27T05:11:01;14.38;;;3.67;;
21110;SDS011;10713;51.912;4.494;2024-01-27T05:13:26;13.73;;;3.90;;
21110;SDS011;10713;51.912;4.494;2024-01-27T05:15:51;9.60;;;2.88;;
21110;SDS011;10713;51.912;4.494;2024-01-27T05:18:17;14.85;;;3.83;;
21110;SDS011;10713;51.912;4.494;2024-01-27T05:20:42;7.82;;;3.78;;
21110;SDS011;10713;51.912;4.494;2024-01-27T05:23:08;6.68;;;2.42;;
21110;SDS011;10713;51.912;4.494;2024-01-27T05:25:33;13.57;;;4.15;;
21110;SDS011;10713;51.912;4.494;2024-01-27T05:27:58;8.68;;;3.85;;
21110;SDS011;10713;51.912;4.494;2024-01-27T05:30:24;8.30;;;3.70;;
21110;SDS011;10713;51.912;4.494;2024-01-27T05:32:49;8.23;;;4.13;;
21110;SDS011;10713;51.912;4.494;2024-01-27T05:35:14;8.02;;;3.35;;
21110;SDS011;10713;51.912;4.494;2024-01-27T05:37:40;11.63;;;3.47;;
21110;SDS011;10713;51.912;4.494;2024-01-27T05:40:06;10.32;;;4.05;;
21110;SDS011;10713;51.912;4.494;2024-01-27T05:42:32;9.82;;;4.25;;
21110;SDS011;10713;51.912;4.494;2024-01-27T05:44:57;8.55;;;4.28;;
21110;SDS011;10713;51.912;4.494;2024-01-27T05:47:23;11.82;;;4.00;;
21110;SDS011;10713;51.912;4.494;2024-01-27T05:49:48;7.65;;;3.60;;
21110;SDS011;10713;51.912;4.494;2024-01-27T05:52:14;10.20;;;4.03;;
21110;SDS011;10713;51.912;4.494;2024-01-27T05:54:40;7.93;;;3.65;;
21110;SDS011;10713;51.912;4.494;2024-01-27T05:57:06;8.15;;;3.40;;
21110;SDS011;10713;51.912;4.494;2024-01-27T05:59:32;20.75;;;4.97;;
21110;SDS011;10713;51.912;4.494;2024-01-27T06:01:57;10.30;;;3.92;;
21110;SDS011;10713;51.912;4.494;2024-01-27T06:04:22;8.93;;;3.65;;
21110;SDS011;10713;51.912;4.494;2024-01-27T06:06:48;6.47;;;4.18;;
21110;SDS011;10713;51.912;4.494;2024-01-27T06:09:13;11.27;;;4.50;;
21110;SDS011;10713;51.912;4.494;2024-01-27T06:11:39;6.05;;;2.78;;
21110;SDS011;10713;51.912;4.494;2024-01-27T06:14:04;8.07;;;4.03;;
21110;SDS011;10713;51.912;4.494;2024-01-27T06:16:30;7.07;;;3.40;;
21110;SDS011;10713;51.912;4.494;2024-01-27T06:18:55;6.03;;;3.40;;
21110;SDS011;10713;51.912;4.494;2024-01-27T06:21:21;10.07;;;3.88;;
21110;SDS011;10713;51.912;4.494;2024-01-27T06:23:46;8.60;;;3.47;;
21110;SDS011;10713;51.912;4.494;2024-01-27T06:26:12;8.20;;;3.08;;
21110;SDS011;10713;51.912;4.494;2024-01-27T06:28:38;8.95;;;4.75;;
21110;SDS011;10713;51.912;4.494;2024-01-27T06:31:04;14.85;;;5.43;;
21110;SDS011;10713;51.912;4.494;2024-01-27T06:33:30;6.45;;;3.85;;
21110;SDS011;10713;51.912;4.494;2024-01-27T06:35:55;9.90;;;3.90;;
21110;SDS011;10713;51.912;4.494;2024-01-27T06:38:21;11.93;;;3.10;;
21110;SDS011;10713;51.912;4.494;2024-01-27T06:40:46;6.13;;;2.75;;
21110;SDS011;10713;51.912;4.494;2024-01-27T06:43:12;10.57;;;4.05;;
21110;SDS011;10713;51.912;4.494;2024-01-27T06:45:38;10.65;;;3.67;;
21110;SDS011;10713;51.912;4.494;2024-01-27T06:48:04;7.15;;;3.22;;
21110;SDS011;10713;51.912;4.494;2024-01-27T06:50:31;8.32;;;4.07;;
21110;SDS011;10713;51.912;4.494;2024-01-27T06:52:57;5.30;;;3.03;;
21110;SDS011;10713;51.912;4.494;2024-01-27T06:55:22;4.93;;;2.80;;
21110;SDS011;10713;51.912;4.494;2024-01-27T06:57:48;11.00;;;5.00;;
21110;SDS011;10713;51.912;4.494;2024-01-27T07:00:13;9.20;;;3.72;;
21110;SDS011;10713;51.912;4.494;2024-01-27T07:02:39;5.65;;;3.28;;
21110;SDS011;10713;51.912;4.494;2024-01-27T07:05:06;8.55;;;4.50;;
21110;SDS011;10713;51.912;4.494;2024-01-27T07:07:32;7.47;;;4.00;;
21110;SDS011;10713;51.912;4.494;2024-01-27T07:09:58;14.07;;;4.88;;
21110;SDS011;10713;51.912;4.494;2024-01-27T07:12:23;7.88;;;3.53;;
21110;SDS011;10713;51.912;4.494;2024-01-27T07:14:49;10.73;;;3.95;;
21110;SDS011;10713;51.912;4.494;2024-01-27T07:17:16;18.13;;;4.38;;
21110;SDS011;10713;51.912;4.494;2024-01-27T07:19:41;9.30;;;3.72;;
21110;SDS011;10713;51.912;4.494;2024-01-27T07:22:07;8.27;;;3.80;;
21110;SDS011;10713;51.912;4.494;2024-01-27T07:24:33;9.52;;;3.97;;
21110;SDS011;10713;51.912;4.494;2024-01-27T07:27:01;6.30;;;4.03;;
21110;SDS011;10713;51.912;4.494;2024-01-27T07:29:28;8.38;;;2.83;;
21110;SDS011;10713;51.912;4.494;2024-01-27T07:31:53;16.30;;;4.20;;
21110;SDS011;10713;51.912;4.494;2024-01-27T07:34:19;6.32;;;3.75;;
21110;SDS011;10713;51.912;4.494;2024-01-27T07:36:44;5.47;;;2.95;;
21110;SDS011;10713;51.912;4.494;2024-01-27T07:39:10;18.75;;;4.60;;
21110;SDS011;10713;51.912;4.494;2024-01-27T07:41:36;7.35;;;4.20;;
21110;SDS011;10713;51.912;4.494;2024-01-27T07:44:10;10.65;;;4.05;;
21110;SDS011;10713;51.912;4.494;2024-01-27T07:46:38;13.65;;;4.55;;
21110;SDS011;10713;51.912;4.494;2024-01-27T07:49:05;11.15;;;4.18;;
21110;SDS011;10713;51.912;4.494;2024-01-27T07:51:34;10.95;;;4.70;;
21110;SDS011;10713;51.912;4.494;2024-01-27T07:53:59;7.97;;;3.90;;
21110;SDS011;10713;51.912;4.494;2024-01-27T07:56:26;12.20;;;5.28;;
21110;SDS011;10713;51.912;4.494;2024-01-27T07:58:51;10.30;;;4.43;;
21110;SDS011;10713;51.912;4.494;2024-01-27T08:01:17;9.25;;;4.10;;
21110;SDS011;10713;51.912;4.494;2024-01-27T08:03:43;8.98;;;4.55;;
21110;SDS011;10713;51.912;4.494;2024-01-27T08:06:15;8.98;;;4.43;;
21110;SDS011;10713;51.912;4.494;2024-01-27T08:08:44;11.15;;;4.28;;
21110;SDS011;10713;51.912;4.494;2024-01-27T08:11:13;12.18;;;4.78;;
21110;SDS011;10713;51.912;4.494;2024-01-27T08:13:39;8.90;;;3.92;;
21110;SDS011;10713;51.912;4.494;2024-01-27T08:16:05;14.45;;;4.70;;
21110;SDS011;10713;51.912;4.494;2024-01-27T08:18:31;9.63;;;4.13;;
21110;SDS011;10713;51.912;4.494;2024-01-27T08:20:56;13.50;;;4.82;;
21110;SDS011;10713;51.912;4.494;2024-01-27T08:23:22;13.95;;;4.38;;
21110;SDS011;10713;51.912;4.494;2024-01-27T08:25:48;10.02;;;4.45;;
21110;SDS011;10713;51.912;4.494;2024-01-27T08:28:17;12.02;;;4.30;;
21110;SDS011;10713;51.912;4.494;2024-01-27T08:30:42;13.55;;;5.38;;
21110;SDS011;10713;51.912;4.494;2024-01-27T08:33:07;13.15;;;4.03;;
21110;SDS011;10713;51.912;4.494;2024-01-27T08:35:33;8.48;;;4.15;;
21110;SDS011;10713;51.912;4.494;2024-01-27T08:37:58;11.52;;;4.68;;
21110;SDS011;10713;51.912;4.494;2024-01-27T08:40:23;11.35;;;5.35;;
21110;SDS011;10713;51.912;4.494;2024-01-27T08:42:49;11.25;;;3.97;;
21110;SDS011;10713;51.912;4.494;2024-01-27T08:45:14;10.63;;;3.70;;
21110;SDS011;10713;51.912;4.494;2024-01-27T08:47:39;14.80;;;4.18;;
21110;SDS011;10713;51.912;4.494;2024-01-27T08:50:05;13.50;;;4.70;;
21110;SDS011;10713;51.912;4.494;2024-01-27T08:52:31;13.63;;;4.20;;
21110;SDS011;10713;51.912;4.494;2024-01-27T08:54:56;10.07;;;4.55;;
21110;SDS011;10713;51.912;4.494;2024-01-27T08:57:22;14.75;;;5.30;;
21110;SDS011;10713;51.912;4.494;2024-01-27T08:59:47;15.13;;;5.53;;
21110;SDS011;10713;51.912;4.494;2024-01-27T09:02:12;11.00;;;4.88;;
21110;SDS011;10713;51.912;4.494;2024-01-27T09:04:38;8.98;;;4.45;;
21110;SDS011;10713;51.912;4.494;2024-01-27T09:07:03;11.32;;;5.22;;
21110;SDS011;10713;51.912;4.494;2024-01-27T09:09:29;14.27;;;5.30;;
21110;SDS011;10713;51.912;4.494;2024-01-27T09:11:54;17.05;;;5.55;;
21110;SDS011;10713;51.912;4.494;2024-01-27T09:14:19;13.60;;;4.30;;
21110;SDS011;10713;51.912;4.494;2024-01-27T09:16:45;9.65;;;3.83;;
21110;SDS011;10713;51.912;4.494;2024-01-27T09:19:11;13.95;;;4.15;;
21110;SDS011;10713;51.912;4.494;2024-01-27T09:21:36;16.45;;;4.70;;
21110;SDS011;10713;51.912;4.494;2024-01-27T09:24:02;12.20;;;4.47;;
21110;SDS011;10713;51.912;4.494;2024-01-27T09:26:28;12.60;;;4.55;;
21110;SDS011;10713;51.912;4.494;2024-01-27T09:28:54;12.73;;;4.90;;
21110;SDS011;10713;51.912;4.494;2024-01-27T09:31:22;16.40;;;4.70;;
21110;SDS011;10713;51.912;4.494;2024-01-27T09:33:51;15.70;;;5.78;;
21110;SDS011;10713;51.912;4.494;2024-01-27T09:36:18;10.13;;;4.22;;
21110;SDS011;10713;51.912;4.494;2024-01-27T09:38:44;11.73;;;4.43;;
21110;SDS011;10713;51.912;4.494;2024-01-27T09:41:10;12.20;;;4.55;;
21110;SDS011;10713;51.912;4.494;2024-01-27T09:43:38;11.02;;;4.07;;
21110;SDS011;10713;51.912;4.494;2024-01-27T09:46:10;11.05;;;4.47;;
21110;SDS011;10713;51.912;4.494;2024-01-27T09:48:36;9.30;;;4.40;;
21110;SDS011;10713;51.912;4.494;2024-01-27T09:51:03;10.70;;;4.63;;
21110;SDS011;10713;51.912;4.494;2024-01-27T09:53:29;11.35;;;4.35;;
21110;SDS011;10713;51.912;4.494;2024-01-27T09:55:55;11.93;;;4.93;;
21110;SDS011;10713;51.912;4.494;2024-01-27T09:58:24;14.43;;;4.80;;
21110;SDS011;10713;51.912;4.494;2024-01-27T10:00:52;17.33;;;4.70;;
21110;SDS011;10713;51.912;4.494;2024-01-27T10:03:25;12.27;;;4.85;;
21110;SDS011;10713;51.912;4.494;2024-01-27T10:05:52;10.07;;;4.18;;
21110;SDS011;10713;51.912;4.494;2024-01-27T10:08:18;14.13;;;4.57;;
21110;SDS011;10713;51.912;4.494;2024-01-27T10:10:45;10.77;;;4.45;;
21110;SDS011;10713;51.912;4.494;2024-01-27T10:13:10;11.35;;;4.45;;
21110;SDS011;10713;51.912;4.494;2024-01-27T10:15:42;11.52;;;4.28;;
21110;SDS011;10713;51.912;4.494;2024-01-27T10:18:08;11.73;;;4.03;;
21110;SDS011;10713;51.912;4.494;2024-01-27T10:20:34;12.73;;;4.22;;
21110;SDS011;10713;51.912;4.494;2024-01-27T10:22:59;11.38;;;4.70;;
21110;SDS011;10713;51.912;4.494;2024-01-27T10:25:39;10.80;;;3.78;;
21110;SDS011;10713;51.912;4.494;2024-01-27T10:28:06;10.88;;;2.53;;
21110;SDS011;10713;51.912;4.494;2024-01-27T10:30:33;6.03;;;3.33;;
21110;SDS011;10713;51.912;4.494;2024-01-27T10:32:59;10.07;;;3.92;;
21110;SDS011;10713;51.912;4.494;2024-01-27T10:35:24;15.15;;;3.75;;
21110;SDS011;10713;51.912;4.494;2024-01-27T10:37:53;10.65;;;3.50;;
21110;SDS011;10713;51.912;4.494;2024-01-27T10:40:19;12.45;;;4.05;;
21110;SDS011;10713;51.912;4.494;2024-01-27T10:42:45;11.95;;;4.38;;
21110;SDS011;10713;51.912;4.494;2024-01-27T10:45:11;13.25;;;3.58;;
21110;SDS011;10713;51.912;4.494;2024-01-27T10:47:38;8.15;;;3.60;;
21110;SDS011;10713;51.912;4.494;2024-01-27T10:50:03;12.68;;;3.63;;
21110;SDS011;10713;51.912;4.494;2024-01-27T10:52:34;12.00;;;3.55;;
21110;SDS011;10713;51.912;4.494;2024-01-27T10:55:03;9.30;;;3.30;;
21110;SDS011;10713;51.912;4.494;2024-01-27T10:57:35;14.68;;;4.40;;
21110;SDS011;10713;51.912;4.494;2024-01-27T11:00:03;6.97;;;4.00;;
21110;SDS011;10713;51.912;4.494;2024-01-27T11:02:32;13.48;;;4.43;;
21110;SDS011;10713;51.912;4.494;2024-01-27T11:04:58;17.65;;;4.57;;
21110;SDS011;10713;51.912;4.494;2024-01-27T11:07:26;12.55;;;4.07;;
21110;SDS011;10713;51.912;4.494;2024-01-27T11:09:53;15.73;;;4.57;;
21110;SDS011;10713;51.912;4.494;2024-01-27T11:12:19;12.95;;;4.43;;
21110;SDS011;10713;51.912;4.494;2024-01-27T11:14:47;11.68;;;4.75;;
21110;SDS011;10713;51.912;4.494;2024-01-27T11:17:13;7.60;;;3.80;;
21110;SDS011;10713;51.912;4.494;2024-01-27T11:19:40;20.20;;;3.92;;
21110;SDS011;10713;51.912;4.494;2024-01-27T11:22:06;16.05;;;4.65;;
21110;SDS011;10713;51.912;4.494;2024-01-27T11:24:32;10.00;;;3.70;;
21110;SDS011;10713;51.912;4.494;2024-01-27T11:27:04;10.55;;;4.35;;
21110;SDS011;10713;51.912;4.494;2024-01-27T11:29:31;10.20;;;3.97;;
21110;SDS011;10713;51.912;4.494;2024-01-27T11:31:59;25.48;;;5.93;;
21110;SDS011;10713;51.912;4.494;2024-01-27T11:34:39;10.07;;;4.15;;
21110;SDS011;10713;51.912;4.494;2024-01-27T11:37:11;12.13;;;4.90;;
21110;SDS011;10713;51.912;4.494;2024-01-27T11:39:41;12.35;;;4.65;;
21110;SDS011;10713;51.912;4.494;2024-01-27T11:42:09;16.88;;;4.60;;
21110;SDS011;10713;51.912;4.494;2024-01-27T11:44:39;13.80;;;3.00;;
21110;SDS011;10713;51.912;4.494;2024-01-27T11:47:05;13.75;;;3.92;;
21110;SDS011;10713;51.912;4.494;2024-01-27T11:49:38;10.05;;;3.90;;
21110;SDS011;10713;51.912;4.494;2024-01-27T11:52:05;7.40;;;3.08;;
21110;SDS011;10713;51.912;4.494;2024-01-27T11:54:31;8.65;;;3.30;;
21110;SDS011;10713;51.912;4.494;2024-01-27T11:56:57;9.57;;;3.58;;
21110;SDS011;10713;51.912;4.494;2024-01-27T11:59:22;6.80;;;2.65;;
21110;SDS011;10713;51.912;4.494;2024-01-27T12:01:48;9.27;;;3.45;;
21110;SDS011;10713;51.912;4.494;2024-01-27T12:04:13;9.10;;;3.28;;
21110;SDS011;10713;51.912;4.494;2024-01-27T12:06:40;8.32;;;3.15;;
21110;SDS011;10713;51.912;4.494;2024-01-27T12:09:06;11.52;;;3.90;;
21110;SDS011;10713;51.912;4.494;2024-01-27T12:11:37;13.98;;;3.58;;
21110;SDS011;10713;51.912;4.494;2024-01-27T12:14:05;14.82;;;3.90;;
21110;SDS011;10713;51.912;4.494;2024-01-27T12:16:30;10.05;;;3.58;;
21110;SDS011;10713;51.912;4.494;2024-01-27T12:18:56;6.15;;;2.83;;
21110;SDS011;10713;51.912;4.494;2024-01-27T12:21:21;8.70;;;3.40;;
21110;SDS011;10713;51.912;4.494;2024-01-27T12:23:53;15.27;;;3.83;;
21110;SDS011;10713;51.912;4.494;2024-01-27T12:26:29;9.90;;;3.70;;
21110;SDS011;10713;51.912;4.494;2024-01-27T12:28:55;10.07;;;3.35;;
21110;SDS011;10713;51.912;4.494;2024-01-27T12:31:22;14.18;;;3.75;;
21110;SDS011;10713;51.912;4.494;2024-01-27T12:33:49;13.77;;;3.83;;
21110;SDS011;10713;51.912;4.494;2024-01-27T12:36:17;21.98;;;3.70;;
21110;SDS011;10713;51.912;4.494;2024-01-27T12:38:57;11.10;;;3.63;;
21110;SDS011;10713;51.912;4.494;2024-01-27T12:41:27;17.88;;;4.25;;
21110;SDS011;10713;51.912;4.494;2024-01-27T12:43:54;10.13;;;3.72;;
21110;SDS011;10713;51.912;4.494;2024-01-27T12:46:20;7.22;;;2.88;;
21110;SDS011;10713;51.912;4.494;2024-01-27T12:48:46;12.35;;;3.97;;
21110;SDS011;10713;51.912;4.494;2024-01-27T12:51:11;5.47;;;3.05;;
21110;SDS011;10713;51.912;4.494;2024-01-27T12:53:40;16.13;;;3.42;;
21110;SDS011;10713;51.912;4.494;2024-01-27T12:56:09;8.20;;;3.28;;
21110;SDS011;10713;51.912;4.494;2024-01-27T12:58:35;12.77;;;4.53;;
21110;SDS011;10713;51.912;4.494;2024-01-27T13:01:00;6.75;;;3.00;;
21110;SDS011;10713;51.912;4.494;2024-01-27T13:03:26;8.27;;;3.33;;
21110;SDS011;10713;51.912;4.494;2024-01-27T13:05:51;7.80;;;3.00;;
21110;SDS011;10713;51.912;4.494;2024-01-27T13:08:17;13.90;;;4.00;;
21110;SDS011;10713;51.912;4.494;2024-01-27T13:10:42;9.10;;;3.35;;
21110;SDS011;10713;51.912;4.494;2024-01-27T13:13:07;11.07;;;3.78;;
21110;SDS011;10713;51.912;4.494;2024-01-27T13:15:33;10.45;;;3.20;;
21110;SDS011;10713;51.912;4.494;2024-01-27T13:17:59;14.15;;;3.60;;
21110;SDS011;10713;51.912;4.494;2024-01-27T13:20:24;12.52;;;4.63;;
21110;SDS011;10713;51.912;4.494;2024-01-27T13:22:49;9.07;;;3.85;;
21110;SDS011;10713;51.912;4.494;2024-01-27T13:25:16;12.10;;;3.97;;
21110;SDS011;10713;51.912;4.494;2024-01-27T13:27:41;10.65;;;3.60;;
21110;SDS011;10713;51.912;4.494;2024-01-27T13:30:06;14.75;;;3.83;;
21110;SDS011;10713;51.912;4.494;2024-01-27T13:32:34;12.52;;;4.20;;
21110;SDS011;10713;51.912;4.494;2024-01-27T13:34:59;12.10;;;4.30;;
21110;SDS011;10713;51.912;4.494;2024-01-27T13:37:25;9.23;;;3.78;;
21110;SDS011;10713;51.912;4.494;2024-01-27T13:39:51;7.50;;;3.05;;
21110;SDS011;10713;51.912;4.494;2024-01-27T13:42:16;15.77;;;4.82;;
21110;SDS011;10713;51.912;4.494;2024-01-27T13:44:42;10.52;;;3.50;;
21110;SDS011;10713;51.912;4.494;2024-01-27T13:47:07;15.00;;;3.92;;
21110;SDS011;10713;51.912;4.494;2024-01-27T13:49:34;10.52;;;4.20;;
21110;SDS011;10713;51.912;4.494;2024-01-27T13:52:00;9.90;;;3.90;;
21110;SDS011;10713;51.912;4.494;2024-01-27T13:54:25;13.63;;;4.40;;
21110;SDS011;10713;51.912;4.494;2024-01-27T13:56:51;14.35;;;4.13;;
21110;SDS011;10713;51.912;4.494;2024-01-27T13:59:16;10.98;;;3.47;;
21110;SDS011;10713;51.912;4.494;2024-01-27T14:01:42;13.43;;;3.22;;
21110;SDS011;10713;51.912;4.494;2024-01-27T14:04:07;10.93;;;3.88;;
21110;SDS011;10713;51.912;4.494;2024-01-27T14:06:33;11.82;;;4.32;;
21110;SDS011;10713;51.912;4.494;2024-01-27T14:08:59;8.82;;;3.08;;
21110;SDS011;10713;51.912;4.494;2024-01-27T14:11:25;13.40;;;3.65;;
21110;SDS011;10713;51.912;4.494;2024-01-27T14:13:52;7.20;;;3.30;;
21110;SDS011;10713;51.912;4.494;2024-01-27T14:16:18;7.85;;;3.33;;
21110;SDS011;10713;51.912;4.494;2024-01-27T14:18:43;15.63;;;3.50;;
21110;SDS011;10713;51.912;4.494;2024-01-27T14:21:09;14.27;;;3.47;;
21110;SDS011;10713;51.912;4.494;2024-01-27T14:23:34;6.40;;;2.65;;
21110;SDS011;10713;51.912;4.494;2024-01-27T14:26:00;15.68;;;3.50;;
21110;SDS011;10713;51.912;4.494;2024-01-27T14:28:25;15.70;;;3.92;;
21110;SDS011;10713;51.912;4.494;2024-01-27T14:30:50;9.40;;;3.47;;
21110;SDS011;10713;51.912;4.494;2024-01-27T14:33:16;6.95;;;3.85;;